Time;durP1;ratioP1;P1;durP2;ratioP2;P2;SDS_P1;SDS_P2;PMS_P1;PMS_P2;Temp;Humidity;BMP_temperature;BMP_pressure;BME280_temperature;BME280_humidity;BME280_pressure;Samples;Min_cycle;Max_cycle;Signal;HPM_P1;HPM_P2
2022/07/12 00:00:57;;;;;;;5.40;4.18;;;14.90;99.90;;;;;;2072435;28;20037;-71
2022/07/12 00:01:58;;;;;;;5.20;4.10;;;14.80;99.90;;;;;;2080771;28;20108;-71
2022/07/12 00:02:59;;;;;;;5.72;4.28;;;14.80;99.90;;;;;;2088701;28;20447;-71
2022/07/12 00:04:02;;;;;;;4.82;3.88;;;14.80;99.90;;;;;;2089014;28;20025;-72
2022/07/12 00:05:04;;;;;;;5.22;3.90;;;14.80;99.90;;;;;;2089311;28;20025;-71
2022/07/12 00:06:05;;;;;;;4.95;4.10;;;14.80;99.90;;;;;;2089070;28;20033;-72
2022/07/12 00:07:14;;;;;;;7.25;4.22;;;14.80;99.90;;;;;;2088813;28;20513;-72
2022/07/12 00:08:15;;;;;;;5.40;3.97;;;14.80;99.90;;;;;;2089346;28;20024;-72
2022/07/12 00:09:16;;;;;;;5.05;4.10;;;14.70;99.90;;;;;;2089037;28;20044;-71
2022/07/12 00:10:17;;;;;;;5.28;4.05;;;14.80;99.90;;;;;;2089914;28;20479;-72
2022/07/12 00:11:20;;;;;;;4.65;3.95;;;14.80;99.90;;;;;;2080827;28;20033;-71
2022/07/12 00:12:21;;;;;;;4.07;3.67;;;14.70;99.90;;;;;;2081240;28;20028;-71
2022/07/12 00:13:22;;;;;;;5.07;4.03;;;14.70;99.90;;;;;;2089281;28;20086;-72
2022/07/12 00:14:22;;;;;;;5.50;3.95;;;14.70;99.90;;;;;;2081614;28;20105;-71
2022/07/12 00:15:24;;;;;;;4.78;3.90;;;14.70;99.90;;;;;;2081057;28;20014;-72
2022/07/12 00:16:24;;;;;;;5.50;3.92;;;14.70;99.90;;;;;;2081066;28;20037;-71
2022/07/12 00:17:25;;;;;;;4.20;3.80;;;14.70;99.90;;;;;;2080254;28;20538;-74
2022/07/12 00:18:26;;;;;;;6.00;3.95;;;14.70;99.90;;;;;;2088852;28;20061;-71
2022/07/12 00:19:26;;;;;;;4.70;3.90;;;14.70;99.90;;;;;;2080493;28;20052;-70
2022/07/12 00:20:30;;;;;;;5.43;4.10;;;14.70;99.90;;;;;;2080187;28;20021;-71
2022/07/12 00:21:30;;;;;;;4.95;3.85;;;14.70;99.90;;;;;;2088804;28;20043;-71
2022/07/12 00:22:31;;;;;;;6.35;4.13;;;14.70;99.90;;;;;;2080047;28;20386;-72
2022/07/12 00:23:33;;;;;;;6.50;4.28;;;14.70;99.90;;;;;;2080499;28;20113;-72
2022/07/12 00:24:34;;;;;;;5.95;4.03;;;14.80;99.90;;;;;;2089240;28;20099;-72
2022/07/12 00:25:35;;;;;;;5.63;4.13;;;14.80;99.90;;;;;;2089253;28;20052;-74
2022/07/12 00:26:43;;;;;;;6.22;4.28;;;14.70;99.90;;;;;;2088651;28;20041;-71
2022/07/12 00:27:47;;;;;;;5.47;4.40;;;14.70;99.90;;;;;;2080619;28;20090;-71
2022/07/12 00:28:48;;;;;;;5.15;4.00;;;14.70;99.90;;;;;;2081195;28;20029;-71
2022/07/12 00:29:49;;;;;;;4.70;4.10;;;14.70;99.90;;;;;;2089992;28;20039;-71
2022/07/12 00:30:50;;;;;;;5.55;4.10;;;14.60;99.90;;;;;;2089677;28;20033;-71
2022/07/12 00:31:55;;;;;;;4.63;3.88;;;14.60;99.90;;;;;;2080857;28;20059;-72
2022/07/12 00:32:56;;;;;;;5.70;3.97;;;14.70;99.90;;;;;;2081259;28;20033;-71
2022/07/12 00:33:57;;;;;;;5.82;4.00;;;14.60;99.90;;;;;;2089365;28;20564;-72
2022/07/12 00:35:05;;;;;;;5.57;3.88;;;14.60;99.90;;;;;;2089621;28;20040;-72
2022/07/12 00:36:07;;;;;;;6.82;4.05;;;14.60;99.90;;;;;;2089941;28;20411;-71
2022/07/12 00:37:08;;;;;;;6.47;4.00;;;14.60;99.90;;;;;;2089525;28;20447;-71
2022/07/12 00:38:08;;;;;;;5.32;3.92;;;14.60;99.90;;;;;;2089510;28;20031;-71
2022/07/12 00:39:09;;;;;;;4.85;3.85;;;14.60;99.90;;;;;;2089373;28;20031;-71
2022/07/12 00:40:13;;;;;;;5.30;4.10;;;14.60;99.90;;;;;;2089193;28;20495;-73
2022/07/12 00:41:14;;;;;;;5.07;3.80;;;14.60;99.90;;;;;;2089343;28;20021;-72
2022/07/12 00:42:15;;;;;;;4.15;3.50;;;14.70;99.90;;;;;;2089234;28;20037;-73
2022/07/12 00:43:16;;;;;;;4.00;3.60;;;14.60;99.90;;;;;;2089035;28;20024;-72
2022/07/12 00:44:23;;;;;;;5.13;3.80;;;14.70;99.90;;;;;;2079637;28;20036;-72
2022/07/12 00:45:28;;;;;;;;;;;14.60;99.90;;;;;;2082224;28;20032;-72
2022/07/12 00:46:31;;;;;;;6.00;3.80;;;14.60;99.90;;;;;;2089277;28;19936;-72
2022/07/12 00:47:37;;;;;;;4.72;3.75;;;14.60;99.90;;;;;;2079731;28;20104;-72
2022/07/12 00:48:38;;;;;;;4.95;3.50;;;14.50;99.90;;;;;;2080925;28;20029;-72
2022/07/12 00:49:39;;;;;;;5.82;3.40;;;14.50;99.90;;;;;;2088963;28;20036;-71
2022/07/12 00:50:46;;;;;;;4.57;3.58;;;14.50;99.90;;;;;;2088991;28;20471;-73
2022/07/12 00:51:47;;;;;;;4.10;3.50;;;14.50;99.90;;;;;;2088733;28;20502;-72
2022/07/12 00:52:52;;;;;;;5.15;3.65;;;14.50;99.90;;;;;;2089001;28;20025;-72
2022/07/12 00:53:56;;;;;;;6.97;3.83;;;14.50;99.90;;;;;;2088969;28;20017;-72
2022/07/12 00:54:56;;;;;;;4.75;3.60;;;14.50;99.90;;;;;;2088951;28;20547;-70
2022/07/12 00:55:58;;;;;;;5.55;3.80;;;14.40;99.90;;;;;;2088760;28;20087;-71
2022/07/12 00:56:59;;;;;;;5.68;4.00;;;14.40;99.90;;;;;;2088485;28;20029;-71
2022/07/12 00:58:00;;;;;;;5.18;4.20;;;14.40;99.90;;;;;;2080373;28;20025;-72
2022/07/12 00:59:05;;;;;;;5.85;4.30;;;14.40;99.90;;;;;;2080360;28;20523;-72
2022/07/12 01:00:14;;;;;;;5.15;4.15;;;14.40;99.90;;;;;;2080487;28;20376;-72
2022/07/12 01:01:23;;;;;;;5.32;4.28;;;14.30;99.90;;;;;;2081493;28;20045;-73
2022/07/12 01:02:24;;;;;;;5.45;4.20;;;14.30;99.90;;;;;;2088192;28;20040;-70
2022/07/12 01:03:27;;;;;;;6.05;4.55;;;14.30;99.90;;;;;;2089028;28;20083;-72
2022/07/12 01:04:28;;;;;;;5.25;4.32;;;14.30;99.90;;;;;;2088983;28;20025;-73
2022/07/12 01:05:29;;;;;;;7.40;4.53;;;14.30;99.90;;;;;;2088655;28;20434;-71
2022/07/12 01:06:32;;;;;;;6.70;4.50;;;14.30;99.90;;;;;;2088809;28;20021;-71
2022/07/12 01:07:34;;;;;;;5.00;4.32;;;14.20;99.90;;;;;;2088513;28;20033;-72
2022/07/12 01:08:35;;;;;;;5.22;4.50;;;14.30;99.90;;;;;;2079715;28;20105;-72
2022/07/12 01:09:35;;;;;;;7.15;4.55;;;14.20;99.90;;;;;;2080127;28;20042;-72
2022/07/12 01:10:38;;;;;;;5.45;4.38;;;14.30;99.90;;;;;;2088320;28;20044;-73
2022/07/12 01:11:39;;;;;;;5.25;4.28;;;14.30;99.90;;;;;;2079244;28;20091;-72
2022/07/12 01:12:40;;;;;;;6.15;4.25;;;14.30;99.90;;;;;;2079498;28;20482;-72
2022/07/12 01:13:40;;;;;;;6.25;4.60;;;14.20;99.90;;;;;;2079623;28;20072;-72
2022/07/12 01:14:42;;;;;;;6.68;4.55;;;14.30;99.90;;;;;;2088985;28;20021;-72
2022/07/12 01:15:42;;;;;;;5.97;4.20;;;14.20;99.90;;;;;;2088660;28;20123;-73
2022/07/12 01:16:43;;;;;;;6.55;4.50;;;14.30;99.90;;;;;;2088781;28;20037;-73
2022/07/12 01:17:45;;;;;;;5.30;4.40;;;14.30;99.90;;;;;;2088474;28;20386;-73
2022/07/12 01:18:45;;;;;;;4.93;4.03;;;14.30;99.90;;;;;;2079650;28;20032;-71
2022/07/12 01:19:50;;;;;;;6.85;4.43;;;14.30;99.90;;;;;;2079965;28;20033;-71
2022/07/12 01:20:51;;;;;;;5.22;4.10;;;14.30;99.90;;;;;;2088758;28;20398;-72
2022/07/12 01:21:56;;;;;;;4.57;3.92;;;14.30;99.90;;;;;;2088305;28;20024;-70
2022/07/12 01:22:58;;;;;;;7.78;4.28;;;14.40;99.90;;;;;;2088653;28;20112;-72
2022/07/12 01:24:00;;;;;;;5.10;4.00;;;14.40;99.90;;;;;;2088460;28;20021;-72
2022/07/12 01:25:02;;;;;;;5.90;4.13;;;14.40;99.90;;;;;;2079519;28;20087;-72
2022/07/12 01:26:03;;;;;;;4.63;3.95;;;14.50;99.90;;;;;;2079937;28;20109;-73
2022/07/12 01:27:05;;;;;;;5.05;4.00;;;14.50;99.90;;;;;;2087603;28;20037;-73
2022/07/12 01:28:06;;;;;;;5.25;3.70;;;14.50;99.90;;;;;;2087727;28;20040;-72
2022/07/12 01:29:08;;;;;;;4.20;3.80;;;14.50;99.90;;;;;;2088631;28;20029;-71
2022/07/12 01:30:09;;;;;;;4.78;3.58;;;14.50;99.90;;;;;;2088454;28;20101;-72
2022/07/12 01:31:10;;;;;;;5.10;3.60;;;14.60;99.90;;;;;;2088403;28;20025;-72
2022/07/12 01:32:26;;;;;;;5.30;3.50;;;14.60;99.90;;;;;;2087972;28;20036;-72
2022/07/12 01:33:27;;;;;;;5.50;3.47;;;14.60;99.90;;;;;;2087567;28;20025;-71
2022/07/12 01:34:28;;;;;;;3.58;3.10;;;14.60;99.90;;;;;;2079392;28;20104;-72
2022/07/12 01:35:31;;;;;;;3.80;3.05;;;14.60;99.90;;;;;;2079467;28;20033;-71
2022/07/12 01:36:31;;;;;;;4.07;3.33;;;14.60;99.90;;;;;;2089380;28;20070;-72
2022/07/12 01:37:40;;;;;;;3.47;3.17;;;14.60;99.90;;;;;;2081343;28;20564;-72
2022/07/12 01:38:41;;;;;;;4.03;3.30;;;14.60;99.90;;;;;;2082147;28;20134;-72
2022/07/12 01:39:43;;;;;;;3.85;3.17;;;14.60;99.90;;;;;;2080748;28;20849;-72
2022/07/12 01:40:44;;;;;;;5.18;3.50;;;14.60;99.90;;;;;;2088343;28;20032;-72
2022/07/12 01:41:45;;;;;;;3.90;3.00;;;14.60;99.90;;;;;;2088378;28;20076;-73
2022/07/12 01:42:46;;;;;;;3.90;3.20;;;14.60;99.90;;;;;;2088287;28;20071;-73
2022/07/12 01:43:47;;;;;;;4.47;3.20;;;14.60;99.90;;;;;;2088104;28;20063;-72
2022/07/12 01:44:52;;;;;;;3.45;3.10;;;14.60;99.90;;;;;;2088152;28;20451;-73
2022/07/12 01:45:52;;;;;;;3.60;3.25;;;14.50;99.90;;;;;;2088071;28;20025;-72
2022/07/12 01:46:53;;;;;;;6.22;3.20;;;14.50;99.90;;;;;;2079044;28;20128;-73
2022/07/12 01:47:54;;;;;;;4.32;3.38;;;14.50;99.90;;;;;;2079567;28;20120;-73
2022/07/12 01:48:58;;;;;;;3.65;3.10;;;14.50;99.90;;;;;;2088308;28;20099;-71
2022/07/12 01:50:00;;;;;;;4.10;3.28;;;14.40;99.90;;;;;;2088476;28;20490;-71
2022/07/12 01:51:03;;;;;;;6.78;3.40;;;14.40;99.90;;;;;;2079471;28;20577;-72
2022/07/12 01:52:05;;;;;;;3.97;3.20;;;14.40;99.90;;;;;;2080344;28;20639;-73
2022/07/12 01:53:07;;;;;;;4.15;3.20;;;14.40;99.90;;;;;;2088373;28;20033;-72
2022/07/12 01:54:10;;;;;;;4.68;3.20;;;14.40;99.90;;;;;;2088334;28;20048;-73
2022/07/12 01:55:12;;;;;;;3.85;3.05;;;14.50;99.90;;;;;;2088372;28;20089;-71
2022/07/12 01:56:14;;;;;;;3.75;2.92;;;14.50;99.90;;;;;;2088280;28;20025;-72
2022/07/12 01:57:15;;;;;;;4.43;3.10;;;14.50;99.90;;;;;;2086036;28;20110;-71
2022/07/12 01:58:17;;;;;;;3.80;3.05;;;14.50;99.90;;;;;;2087213;28;20433;-74
2022/07/12 01:59:18;;;;;;;3.45;3.15;;;14.50;99.90;;;;;;2087797;28;20014;-72
2022/07/12 02:00:19;;;;;;;4.22;3.10;;;14.50;99.90;;;;;;2087613;28;20021;-71
2022/07/12 02:01:21;;;;;;;3.75;3.10;;;14.50;99.90;;;;;;2087425;28;20108;-72
2022/07/12 02:02:25;;;;;;;3.50;2.90;;;14.60;99.90;;;;;;2087566;28;20097;-71
2022/07/12 02:03:26;;;;;;;5.50;2.83;;;14.60;99.90;;;;;;2087699;28;20552;-74
2022/07/12 02:04:27;;;;;;;5.82;2.97;;;14.60;99.90;;;;;;2087630;28;20111;-71
2022/07/12 02:05:28;;;;;;;3.20;2.90;;;14.60;99.90;;;;;;2088113;28;20029;-72
2022/07/12 02:06:38;;;;;;;3.95;3.10;;;14.60;99.90;;;;;;2088306;28;20053;-73
2022/07/12 02:07:40;;;;;;;3.65;2.90;;;14.60;99.90;;;;;;2087920;28;20025;-73
2022/07/12 02:08:47;;;;;;;4.57;3.25;;;14.60;99.90;;;;;;2095444;28;20120;-72
2022/07/12 02:09:47;;;;;;;4.57;3.13;;;14.60;99.90;;;;;;2095074;28;20104;-73
2022/07/12 02:10:48;;;;;;;3.30;2.97;;;14.60;99.90;;;;;;2088460;28;20040;-75
2022/07/12 02:11:49;;;;;;;3.70;3.10;;;14.60;99.90;;;;;;2087607;28;20037;-73
2022/07/12 02:12:50;;;;;;;3.22;2.92;;;14.60;99.90;;;;;;2087960;28;20036;-73
2022/07/12 02:13:54;;;;;;;3.85;2.83;;;14.60;99.90;;;;;;2088472;28;20111;-71
2022/07/12 02:14:55;;;;;;;4.57;3.10;;;14.60;99.90;;;;;;2089616;28;20482;-73
2022/07/12 02:15:56;;;;;;;3.83;2.85;;;14.60;99.90;;;;;;2090069;28;20033;-71
2022/07/12 02:16:59;;;;;;;4.75;3.05;;;14.60;99.90;;;;;;2089870;28;20024;-71
2022/07/12 02:18:00;;;;;;;3.00;2.70;;;14.60;99.90;;;;;;2089333;28;20083;-73
2022/07/12 02:19:02;;;;;;;3.75;3.05;;;14.60;99.90;;;;;;2088871;28;20115;-72
2022/07/12 02:20:03;;;;;;;4.18;3.00;;;14.60;99.90;;;;;;2089797;28;20049;-71
2022/07/12 02:21:04;;;;;;;3.90;2.90;;;14.60;99.90;;;;;;2089534;28;20033;-71
2022/07/12 02:22:05;;;;;;;3.67;2.97;;;14.60;99.90;;;;;;2089503;28;20115;-71
2022/07/12 02:23:06;;;;;;;3.35;2.95;;;14.70;99.90;;;;;;2089702;28;20033;-72
2022/07/12 02:24:07;;;;;;;4.20;3.20;;;14.60;99.90;;;;;;2089532;28;20070;-71
2022/07/12 02:25:08;;;;;;;3.30;3.00;;;14.60;99.90;;;;;;2080525;28;20032;-72
2022/07/12 02:26:08;;;;;;;3.85;2.95;;;14.60;99.90;;;;;;2080772;28;20033;-71
2022/07/12 02:27:09;;;;;;;4.55;3.03;;;14.60;99.90;;;;;;2089341;28;20024;-72
2022/07/12 02:28:10;;;;;;;3.25;2.90;;;14.60;99.90;;;;;;2080528;28;20145;-71
2022/07/12 02:29:11;;;;;;;3.55;3.10;;;14.60;99.90;;;;;;2080905;28;20671;-71
2022/07/12 02:30:12;;;;;;;4.10;2.97;;;14.60;99.90;;;;;;2089733;28;20029;-72
2022/07/12 02:31:12;;;;;;;4.10;2.95;;;14.60;99.90;;;;;;2080769;28;20028;-71
2022/07/12 02:32:14;;;;;;;4.10;2.85;;;14.60;99.90;;;;;;2072807;28;20045;-71
2022/07/12 02:33:15;;;;;;;6.13;3.10;;;14.60;99.90;;;;;;2072775;28;20029;-72
2022/07/12 02:34:16;;;;;;;3.70;3.15;;;14.50;99.90;;;;;;2080850;28;20618;-73
2022/07/12 02:35:17;;;;;;;3.40;2.83;;;14.50;99.90;;;;;;2089536;28;20106;-72
2022/07/12 02:36:18;;;;;;;4.97;3.13;;;14.50;99.90;;;;;;2089603;28;20021;-73
2022/07/12 02:37:19;;;;;;;4.13;3.30;;;14.50;99.90;;;;;;2088906;28;20094;-72
2022/07/12 02:38:21;;;;;;;3.35;3.00;;;14.50;99.90;;;;;;2089404;28;20032;-73
2022/07/12 02:39:22;;;;;;;4.80;3.17;;;14.50;99.90;;;;;;2089539;28;20032;-72
2022/07/12 02:41:41;;;;;;;4.50;3.55;;;14.40;99.90;;;;;;2089536;28;20107;-73
2022/07/12 02:42:43;;;;;;;5.28;3.65;;;14.40;99.90;;;;;;2089605;28;20098;-72
2022/07/12 02:43:43;;;;;;;4.18;3.78;;;14.40;99.90;;;;;;2089490;28;20040;-73
2022/07/12 02:44:44;;;;;;;5.63;4.03;;;14.30;99.90;;;;;;2089515;28;20770;-72
2022/07/12 02:45:45;;;;;;;5.35;3.88;;;14.30;99.90;;;;;;2089456;28;20872;-72
2022/07/12 02:46:46;;;;;;;5.80;4.13;;;14.30;99.90;;;;;;2088928;28;20032;-73
2022/07/12 02:47:46;;;;;;;6.90;4.13;;;14.30;99.90;;;;;;2089532;28;20028;-72
2022/07/12 02:48:47;;;;;;;5.22;4.13;;;14.30;99.90;;;;;;2088839;28;20433;-72
2022/07/12 02:49:48;;;;;;;5.90;4.35;;;14.30;99.90;;;;;;2089502;28;20077;-73
2022/07/12 02:50:49;;;;;;;5.90;4.20;;;14.30;99.90;;;;;;2089330;28;20041;-72
2022/07/12 02:51:49;;;;;;;5.95;3.88;;;14.30;99.90;;;;;;2089263;28;20029;-72
2022/07/12 02:52:50;;;;;;;5.72;4.00;;;14.30;99.90;;;;;;2089695;28;20021;-72
2022/07/12 02:53:50;;;;;;;5.63;3.90;;;14.30;99.90;;;;;;2088684;28;20029;-72
2022/07/12 02:54:51;;;;;;;5.07;4.10;;;14.30;99.90;;;;;;2089014;28;20036;-72
2022/07/12 02:55:52;;;;;;;4.63;3.97;;;14.30;99.90;;;;;;2089431;28;20028;-73
2022/07/12 02:56:53;;;;;;;6.65;3.90;;;14.30;99.90;;;;;;2089137;28;20046;-73
2022/07/12 02:57:57;;;;;;;4.85;3.65;;;14.30;99.90;;;;;;2089464;28;20028;-72
2022/07/12 02:58:57;;;;;;;4.32;3.60;;;14.30;99.90;;;;;;2089596;28;20036;-72
2022/07/12 02:59:58;;;;;;;4.35;3.83;;;14.30;99.90;;;;;;2089213;28;20036;-73
2022/07/12 03:00:59;;;;;;;4.68;3.70;;;14.30;99.90;;;;;;2089376;28;20032;-73
2022/07/12 03:02:00;;;;;;;4.10;3.70;;;14.30;99.90;;;;;;2089279;28;20099;-72
2022/07/12 03:03:01;;;;;;;3.70;3.25;;;14.40;99.90;;;;;;2089462;28;20040;-72
2022/07/12 03:04:02;;;;;;;4.07;3.33;;;14.40;99.90;;;;;;2089244;28;20482;-72
2022/07/12 03:05:03;;;;;;;4.85;3.55;;;14.40;99.90;;;;;;2089398;28;20033;-73
2022/07/12 03:06:06;;;;;;;4.45;3.50;;;14.40;99.90;;;;;;2089543;28;20037;-71
2022/07/12 03:07:07;;;;;;;4.68;3.63;;;14.40;99.90;;;;;;2080429;28;20025;-72
2022/07/12 03:08:12;;;;;;;3.80;3.40;;;14.40;99.90;;;;;;2081086;28;20026;-72
2022/07/12 03:09:12;;;;;;;5.03;3.42;;;14.40;99.90;;;;;;2089846;28;20459;-73
2022/07/12 03:10:13;;;;;;;6.75;3.38;;;14.30;99.90;;;;;;2089163;28;20040;-73
2022/07/12 03:11:14;;;;;;;4.20;3.40;;;14.30;99.90;;;;;;2089053;28;20056;-72
2022/07/12 03:12:14;;;;;;;5.25;3.30;;;14.30;99.90;;;;;;2089399;28;20027;-73
2022/07/12 03:13:15;;;;;;;5.03;3.65;;;14.30;99.90;;;;;;2088946;28;20576;-73
2022/07/12 03:14:16;;;;;;;5.15;3.40;;;14.30;99.90;;;;;;2089380;28;20068;-72
2022/07/12 03:15:16;;;;;;;5.25;3.30;;;14.30;99.90;;;;;;2088693;28;20037;-72
2022/07/12 03:16:17;;;;;;;5.22;3.38;;;14.30;99.90;;;;;;2088826;28;20065;-72
2022/07/12 03:17:18;;;;;;;4.40;3.50;;;14.30;99.90;;;;;;2089349;28;20486;-72
2022/07/12 03:18:19;;;;;;;5.80;3.60;;;14.20;99.90;;;;;;2088899;28;20558;-72
2022/07/12 03:19:28;;;;;;;5.90;3.33;;;14.20;99.90;;;;;;2088701;28;20389;-72
2022/07/12 03:20:33;;;;;;;4.70;3.78;;;14.20;99.90;;;;;;2089707;28;20097;-73
2022/07/12 03:21:36;;;;;;;3.85;3.50;;;14.20;99.90;;;;;;2096518;28;20131;-73
2022/07/12 03:22:38;;;;;;;5.88;4.03;;;14.20;99.90;;;;;;2089590;28;20032;-72
2022/07/12 03:23:39;;;;;;;5.40;3.85;;;14.20;99.90;;;;;;2080489;28;20075;-72
2022/07/12 03:24:40;;;;;;;5.13;3.78;;;14.20;99.90;;;;;;2080649;28;20033;-71
2022/07/12 03:25:40;;;;;;;4.88;3.80;;;14.20;99.90;;;;;;2088689;28;20486;-71
2022/07/12 03:26:41;;;;;;;4.43;3.83;;;14.20;99.90;;;;;;2089978;28;20025;-71
2022/07/12 03:27:42;;;;;;;5.97;3.97;;;14.10;99.90;;;;;;2089578;28;20124;-71
2022/07/12 03:28:44;;;;;;;6.20;3.88;;;14.10;99.90;;;;;;2089770;28;20039;-71
2022/07/12 03:29:57;;;;;;;5.65;3.78;;;14.10;99.90;;;;;;2081078;28;20022;-71
2022/07/12 03:31:01;;;;;;;4.70;3.50;;;14.10;99.90;;;;;;2082739;28;20032;-71
2022/07/12 03:32:02;;;;;;;4.03;3.63;;;14.10;99.90;;;;;;2089846;28;20017;-70
2022/07/12 03:33:03;;;;;;;4.93;3.80;;;14.10;99.90;;;;;;2089601;28;20611;-70
2022/07/12 03:34:04;;;;;;;4.18;3.40;;;14.00;99.90;;;;;;2089529;28;20032;-70
2022/07/12 03:35:05;;;;;;;4.68;3.53;;;14.00;99.90;;;;;;2080527;28;20034;-70
2022/07/12 03:36:08;;;;;;;4.38;3.55;;;14.00;99.90;;;;;;2080395;28;20025;-70
2022/07/12 03:37:09;;;;;;;3.92;3.53;;;14.00;99.90;;;;;;2089199;28;20095;-70
2022/07/12 03:38:12;;;;;;;4.82;3.63;;;14.00;99.90;;;;;;2090369;28;20028;-71
2022/07/12 03:39:14;;;;;;;6.18;3.83;;;14.00;99.90;;;;;;2090278;28;20025;-72
2022/07/12 03:40:16;;;;;;;4.53;3.58;;;13.90;99.90;;;;;;2080529;28;20021;-75
2022/07/12 03:41:17;;;;;;;4.78;3.63;;;14.00;99.90;;;;;;2080986;28;20017;-72
2022/07/12 03:42:18;;;;;;;3.97;3.42;;;13.90;99.90;;;;;;2089512;28;20078;-72
2022/07/12 03:43:28;;;;;;;5.50;3.45;;;13.90;99.90;;;;;;2080738;28;20033;-73
2022/07/12 03:44:30;;;;;;;5.72;3.70;;;14.00;99.90;;;;;;2074104;28;20121;-73
2022/07/12 03:45:31;;;;;;;4.90;3.58;;;14.00;99.90;;;;;;2073082;28;20125;-72
2022/07/12 03:46:35;;;;;;;4.40;3.65;;;13.90;99.90;;;;;;2072729;28;20092;-72
2022/07/12 03:47:40;;;;;;;3.70;3.30;;;14.00;99.90;;;;;;2081075;28;20025;-73
2022/07/12 03:48:41;;;;;;;6.68;3.60;;;14.00;99.90;;;;;;2080882;28;20026;-72
2022/07/12 03:49:42;;;;;;;4.80;3.45;;;13.90;99.90;;;;;;2090169;28;20108;-72
2022/07/12 03:50:42;;;;;;;4.57;3.40;;;14.00;99.90;;;;;;2089740;28;20021;-72
2022/07/12 03:51:46;;;;;;;5.60;3.40;;;14.00;99.90;;;;;;2089257;28;20789;-72
2022/07/12 03:52:48;;;;;;;5.90;3.38;;;14.00;99.90;;;;;;2080708;28;20028;-73
2022/07/12 03:53:57;;;;;;;6.22;4.00;;;14.00;99.90;;;;;;2080408;28;20067;-75
2022/07/12 03:54:59;;;;;;;5.88;3.60;;;14.00;99.90;;;;;;2072505;28;20109;-75
2022/07/12 03:56:00;;;;;;;5.78;3.80;;;14.00;99.90;;;;;;2080940;28;20017;-74
2022/07/12 03:57:16;;;;;;;6.93;3.60;;;14.00;99.90;;;;;;2080591;28;20423;-75
2022/07/12 03:58:17;;;;;;;4.68;3.55;;;14.00;99.90;;;;;;2083114;28;20428;-75
2022/07/12 03:59:17;;;;;;;7.43;3.55;;;14.00;99.90;;;;;;2089412;28;20094;-75
2022/07/12 04:00:19;;;;;;;5.93;3.33;;;14.10;99.90;;;;;;2088944;28;20028;-74
2022/07/12 04:01:19;;;;;;;10.00;3.60;;;14.10;99.90;;;;;;2088518;28;20143;-75
2022/07/12 04:02:39;;;;;;;6.50;3.60;;;14.10;99.90;;;;;;2088821;28;20041;-74
2022/07/12 04:03:40;;;;;;;9.52;3.92;;;14.10;99.90;;;;;;2080766;28;20036;-75
2022/07/12 04:04:41;;;;;;;13.15;4.15;;;14.10;99.90;;;;;;2080374;28;20034;-74
2022/07/12 04:05:42;;;;;;;11.35;4.15;;;14.10;99.90;;;;;;2080290;28;20049;-73
2022/07/12 04:06:42;;;;;;;18.05;4.13;;;14.10;99.90;;;;;;2080196;28;20403;-74
2022/07/12 04:07:43;;;;;;;21.23;4.80;;;14.10;99.90;;;;;;2088299;28;20475;-74
2022/07/12 04:08:44;;;;;;;16.20;4.70;;;14.10;99.90;;;;;;2079890;28;20029;-73
2022/07/12 04:09:44;;;;;;;26.83;5.10;;;14.10;99.90;;;;;;2079938;28;20045;-74
2022/07/12 04:10:45;;;;;;;17.83;4.70;;;14.10;99.90;;;;;;2080106;28;20037;-75
2022/07/12 04:11:46;;;;;;;17.95;5.00;;;14.10;99.90;;;;;;2079761;28;20037;-74
2022/07/12 04:12:47;;;;;;;18.70;4.50;;;14.10;99.90;;;;;;2080254;28;20030;-75
2022/07/12 04:13:51;;;;;;;21.52;5.20;;;14.10;99.90;;;;;;2072489;28;20029;-74
2022/07/12 04:14:51;;;;;;;22.75;4.53;;;14.10;99.90;;;;;;2081185;28;20029;-76
2022/07/12 04:15:52;;;;;;;14.18;3.95;;;14.10;99.90;;;;;;2089696;28;20147;-73
2022/07/12 04:16:53;;;;;;;19.48;4.45;;;14.10;99.90;;;;;;2089319;28;20021;-73
2022/07/12 04:17:54;;;;;;;17.88;4.65;;;14.10;99.90;;;;;;2089526;28;20482;-73
2022/07/12 04:18:57;;;;;;;17.30;4.40;;;14.10;99.90;;;;;;2089173;28;20093;-74
2022/07/12 04:19:58;;;;;;;11.98;4.15;;;14.10;99.90;;;;;;2089452;28;20036;-74
2022/07/12 04:20:59;;;;;;;11.57;4.18;;;14.10;99.90;;;;;;2089426;28;20079;-73
2022/07/12 04:22:00;;;;;;;16.77;4.68;;;14.20;99.90;;;;;;2088467;28;20021;-70
2022/07/12 04:23:01;;;;;;;11.52;4.28;;;14.20;99.90;;;;;;2088710;28;20036;-71
2022/07/12 04:24:02;;;;;;;10.27;4.13;;;14.20;99.90;;;;;;2088717;28;20025;-71
2022/07/12 04:25:03;;;;;;;8.43;4.07;;;14.20;99.90;;;;;;2088680;28;20059;-71
2022/07/12 04:26:04;;;;;;;7.45;3.72;;;14.30;99.90;;;;;;2088637;28;20029;-70
2022/07/12 04:27:05;;;;;;;10.15;4.10;;;14.30;99.90;;;;;;2088259;28;20521;-70
2022/07/12 04:28:05;;;;;;;9.38;4.05;;;14.40;99.90;;;;;;2088476;28;20045;-70
2022/07/12 04:29:06;;;;;;;11.05;4.07;;;14.60;99.90;;;;;;2088547;28;20025;-71
2022/07/12 04:30:08;;;;;;;10.60;4.07;;;14.90;99.90;;;;;;2088783;28;20021;-70
2022/07/12 04:31:09;;;;;;;6.28;3.60;;;15.30;99.90;;;;;;2088573;28;20706;-71
2022/07/12 04:32:10;;;;;;;8.55;3.80;;;15.80;99.90;;;;;;2079456;28;20108;-72
2022/07/12 04:33:11;;;;;;;10.20;3.83;;;16.20;99.90;;;;;;2079722;28;20669;-70
2022/07/12 04:34:16;;;;;;;15.20;3.95;;;16.70;99.90;;;;;;2088527;28;20043;-70
2022/07/12 04:35:17;;;;;;;7.40;3.70;;;17.10;99.90;;;;;;2079869;28;20037;-72
2022/07/12 04:36:17;;;;;;;10.75;3.60;;;17.60;99.90;;;;;;2079808;28;20029;-70
2022/07/12 04:37:18;;;;;;;9.77;3.65;;;17.90;99.90;;;;;;2078845;28;20060;-71
2022/07/12 04:38:19;;;;;;;9.55;3.63;;;18.10;99.90;;;;;;2088591;28;20017;-71
2022/07/12 04:39:19;;;;;;;18.20;3.88;;;18.10;99.90;;;;;;2088526;28;20103;-71
2022/07/12 04:40:20;;;;;;;13.50;3.80;;;18.10;99.90;;;;;;2088540;28;20032;-71
2022/07/12 04:41:21;;;;;;;7.25;3.35;;;18.20;99.90;;;;;;2088426;28;20025;-72
2022/07/12 04:42:21;;;;;;;8.52;3.80;;;18.10;99.90;;;;;;2088654;28;20025;-72
2022/07/12 04:43:24;;;;;;;7.05;3.72;;;18.10;99.90;;;;;;2088802;28;20029;-69
2022/07/12 04:44:24;;;;;;;9.23;3.75;;;18.00;99.90;;;;;;2088742;28;20163;-70
2022/07/12 04:45:25;;;;;;;10.98;3.80;;;17.80;99.90;;;;;;2088602;28;20029;-70
2022/07/12 04:46:26;;;;;;;7.10;3.40;;;17.60;99.90;;;;;;2079215;28;20117;-71
2022/07/12 04:47:26;;;;;;;8.10;3.20;;;17.50;99.90;;;;;;2079383;28;20085;-71
2022/07/12 04:48:27;;;;;;;4.97;3.45;;;17.40;99.90;;;;;;2088352;28;20029;-71
2022/07/12 04:49:27;;;;;;;11.43;3.80;;;17.30;99.90;;;;;;2088626;28;20055;-73
2022/07/12 04:50:28;;;;;;;8.10;3.97;;;17.10;99.90;;;;;;2088435;28;20025;-69
2022/07/12 04:51:29;;;;;;;8.20;3.67;;;17.00;99.90;;;;;;2088355;28;20033;-70
2022/07/12 04:52:30;;;;;;;7.90;3.90;;;16.90;99.90;;;;;;2088472;28;20021;-69
2022/07/12 04:53:30;;;;;;;12.85;4.10;;;16.90;99.90;;;;;;2079689;28;20743;-69
2022/07/12 04:54:31;;;;;;;7.78;4.30;;;16.80;99.90;;;;;;2079585;28;20022;-70
2022/07/12 04:55:31;;;;;;;13.32;4.00;;;16.80;99.90;;;;;;2088323;28;20392;-71
2022/07/12 04:56:32;;;;;;;10.50;3.55;;;16.90;99.90;;;;;;2088583;28;20108;-69
2022/07/12 04:57:33;;;;;;;7.82;4.30;;;17.00;99.90;;;;;;2088478;28;20054;-70
2022/07/12 04:58:34;;;;;;;9.85;4.25;;;17.20;99.90;;;;;;2088464;28;20108;-70
2022/07/12 04:59:34;;;;;;;9.07;3.90;;;17.40;99.90;;;;;;2088690;28;20037;-69
2022/07/12 05:00:35;;;;;;;10.55;3.60;;;17.70;99.90;;;;;;2088723;28;20762;-72
2022/07/12 05:01:36;;;;;;;7.78;3.50;;;18.00;99.90;;;;;;2088950;28;20044;-69
2022/07/12 05:02:37;;;;;;;9.18;3.70;;;18.20;99.90;;;;;;2088634;28;20028;-69
2022/07/12 05:03:37;;;;;;;7.82;3.40;;;18.50;99.90;;;;;;2088505;28;20111;-70
2022/07/12 05:04:38;;;;;;;5.53;3.22;;;18.80;99.90;;;;;;2088481;28;20124;-69
2022/07/12 05:05:39;;;;;;;9.77;4.03;;;19.20;99.90;;;;;;2088336;28;20083;-69
2022/07/12 05:06:39;;;;;;;4.88;3.83;;;19.60;99.90;;;;;;2079256;28;20033;-69
2022/07/12 05:07:41;;;;;;;4.45;3.40;;;19.90;99.90;;;;;;2079062;28;20033;-69
2022/07/12 05:08:41;;;;;;;4.90;3.22;;;20.30;99.90;;;;;;2088271;28;20098;-70
2022/07/12 05:09:42;;;;;;;4.25;3.22;;;20.50;99.90;;;;;;2088027;28;20036;-70
2022/07/12 05:10:43;;;;;;;6.28;3.42;;;20.80;99.90;;;;;;2079222;28;20112;-69
2022/07/12 05:11:43;;;;;;;4.80;3.47;;;21.00;99.90;;;;;;2079094;28;20583;-70
2022/07/12 05:12:44;;;;;;;6.53;3.40;;;21.20;99.90;;;;;;2088427;28;20029;-69
2022/07/12 05:13:45;;;;;;;3.40;3.10;;;21.50;99.90;;;;;;2079407;28;20499;-69
2022/07/12 05:14:46;;;;;;;4.85;2.97;;;21.70;99.90;;;;;;2079503;28;20112;-70
2022/07/12 05:15:46;;;;;;;5.63;3.05;;;21.80;99.90;;;;;;2088623;28;20028;-70
2022/07/12 05:16:47;;;;;;;3.47;2.90;;;22.10;99.20;;;;;;2087401;28;20039;-69
2022/07/12 05:17:48;;;;;;;5.82;3.30;;;22.20;98.40;;;;;;2087721;28;20096;-70
2022/07/12 05:18:48;;;;;;;4.68;3.25;;;22.40;97.40;;;;;;2088389;28;20467;-70
2022/07/12 05:19:49;;;;;;;7.53;3.90;;;22.50;97.00;;;;;;2088543;28;20032;-71
2022/07/12 05:20:49;;;;;;;4.20;3.35;;;22.50;96.70;;;;;;2079468;28;20613;-71
2022/07/12 05:21:50;;;;;;;5.05;3.13;;;22.60;96.40;;;;;;2079239;28;20037;-71
2022/07/12 05:22:51;;;;;;;6.43;3.33;;;22.70;96.00;;;;;;2079350;28;20034;-71